Overview Statistics Trail Chart Weather Telemetry Raw packets
 

This is the latest recevied weather packets stored in our database for station/object SP6FIG. If no packets are shown the sender has not sent any weather packets the latest 10 day(s).

<< 11 12 13 14 15 16 17 >>
Time Temp. Humidity Pressure Rain* Wind** Luminosity Snow
1777551713 22.22° C 32% 980.9 hPa - - - -
1777551113 22.22° C 30% 981 hPa - - - -
1777550513 22.22° C 31% 981.2 hPa - - - -
1777549913 22.22° C 31% 981.3 hPa - - - -
1777549313 22.22° C 31% 981.2 hPa - - - -
1777548713 22.22° C 30% 981.1 hPa - - - -
1777548113 22.78° C 35% 981.2 hPa - - - -
1777547513 22.22° C 35% 981.3 hPa - - - -
1777546913 22.78° C 35% 981.3 hPa - - - -
1777546313 22.22° C 35% 981.5 hPa - - - -
1777545713 22.22° C 36% 981.6 hPa - - - -
1777545113 22.22° C 36% 981.5 hPa - - - -
1777544513 22.22° C 36% 981.6 hPa - - - -
1777543913 22.22° C 36% 981.8 hPa - - - -
1777543313 22.22° C 36% 981.9 hPa - - - -
1777491189 22.22° C 33% 980.3 hPa - - - -
1777490590 22.22° C 33% 980.3 hPa - - - -
1777489989 22.22° C 32% 980.2 hPa - - - -
1777489389 22.22° C 32% 980.2 hPa - - - -
1777488789 22.22° C 32% 980.1 hPa - - - -
1777488189 22.22° C 32% 980 hPa - - - -
1777487589 22.22° C 32% 979.9 hPa - - - -
1777486989 22.22° C 32% 979.7 hPa - - - -
1777486389 22.22° C 32% 979.8 hPa - - - -
1777485790 22.22° C 32% 979.7 hPa - - - -

* Rain since midnight (hover to see other rain measurements)
** Current wind speed in m/s (hover to see current wind gust speed)